sensor_id;sensor_type;location;lat;lon;timestamp;P1;durP1;ratioP1;P2;durP2;ratioP2
68938;SDS011;59064;45.294;11.816;2023-06-04T00:01:20;13.60;;;9.10;;
68938;SDS011;59064;45.294;11.816;2023-06-04T00:03:46;12.30;;;9.50;;
68938;SDS011;59064;45.294;11.816;2023-06-04T00:06:12;14.60;;;8.90;;
68938;SDS011;59064;45.294;11.816;2023-06-04T00:08:37;12.60;;;9.20;;
68938;SDS011;59064;45.294;11.816;2023-06-04T00:11:03;11.70;;;8.80;;
68938;SDS011;59064;45.294;11.816;2023-06-04T00:13:29;10.40;;;7.70;;
68938;SDS011;59064;45.294;11.816;2023-06-04T00:15:54;13.60;;;9.70;;
68938;SDS011;59064;45.294;11.816;2023-06-04T00:18:20;11.60;;;8.00;;
68938;SDS011;59064;45.294;11.816;2023-06-04T00:20:46;12.80;;;8.40;;
68938;SDS011;59064;45.294;11.816;2023-06-04T00:23:11;12.50;;;8.40;;
68938;SDS011;59064;45.294;11.816;2023-06-04T00:25:37;13.80;;;9.40;;
68938;SDS011;59064;45.294;11.816;2023-06-04T00:28:03;12.20;;;9.20;;
68938;SDS011;59064;45.294;11.816;2023-06-04T00:30:29;11.70;;;8.70;;
68938;SDS011;59064;45.294;11.816;2023-06-04T00:32:54;12.90;;;8.60;;
68938;SDS011;59064;45.294;11.816;2023-06-04T00:35:20;12.00;;;9.50;;
68938;SDS011;59064;45.294;11.816;2023-06-04T00:37:46;11.90;;;8.00;;
68938;SDS011;59064;45.294;11.816;2023-06-04T00:40:12;11.20;;;8.60;;
68938;SDS011;59064;45.294;11.816;2023-06-04T00:42:38;10.10;;;8.10;;
68938;SDS011;59064;45.294;11.816;2023-06-04T00:45:04;13.20;;;8.60;;
68938;SDS011;59064;45.294;11.816;2023-06-04T00:47:35;12.90;;;8.80;;
68938;SDS011;59064;45.294;11.816;2023-06-04T00:50:01;11.10;;;8.70;;
68938;SDS011;59064;45.294;11.816;2023-06-04T00:52:27;13.00;;;9.60;;
68938;SDS011;59064;45.294;11.816;2023-06-04T00:54:53;11.00;;;8.50;;
68938;SDS011;59064;45.294;11.816;2023-06-04T00:57:22;12.00;;;8.80;;
68938;SDS011;59064;45.294;11.816;2023-06-04T00:59:48;12.70;;;8.60;;
68938;SDS011;59064;45.294;11.816;2023-06-04T01:02:17;13.70;;;9.30;;
68938;SDS011;59064;45.294;11.816;2023-06-04T01:05:14;14.00;;;8.80;;
68938;SDS011;59064;45.294;11.816;2023-06-04T01:07:45;11.40;;;9.20;;
68938;SDS011;59064;45.294;11.816;2023-06-04T01:10:13;12.70;;;8.90;;
68938;SDS011;59064;45.294;11.816;2023-06-04T01:12:40;12.60;;;9.00;;
68938;SDS011;59064;45.294;11.816;2023-06-04T01:15:07;11.00;;;8.30;;
68938;SDS011;59064;45.294;11.816;2023-06-04T01:17:39;10.70;;;6.90;;
68938;SDS011;59064;45.294;11.816;2023-06-04T01:25:52;13.80;;;9.00;;
68938;SDS011;59064;45.294;11.816;2023-06-04T01:28:19;16.20;;;9.10;;
68938;SDS011;59064;45.294;11.816;2023-06-04T01:30:46;10.70;;;8.50;;
68938;SDS011;59064;45.294;11.816;2023-06-04T01:33:16;10.00;;;7.90;;
68938;SDS011;59064;45.294;11.816;2023-06-04T01:35:43;13.30;;;7.40;;
68938;SDS011;59064;45.294;11.816;2023-06-04T01:38:10;11.70;;;8.10;;
68938;SDS011;59064;45.294;11.816;2023-06-04T01:40:36;15.60;;;9.00;;
68938;SDS011;59064;45.294;11.816;2023-06-04T01:43:02;13.90;;;8.60;;
68938;SDS011;59064;45.294;11.816;2023-06-04T01:45:28;14.30;;;8.80;;
68938;SDS011;59064;45.294;11.816;2023-06-04T01:47:55;14.20;;;8.90;;
68938;SDS011;59064;45.294;11.816;2023-06-04T01:50:22;15.40;;;9.00;;
68938;SDS011;59064;45.294;11.816;2023-06-04T01:52:48;14.30;;;9.50;;
68938;SDS011;59064;45.294;11.816;2023-06-04T01:55:16;14.30;;;8.80;;
68938;SDS011;59064;45.294;11.816;2023-06-04T01:57:45;11.30;;;8.30;;
68938;SDS011;59064;45.294;11.816;2023-06-04T02:00:15;14.10;;;9.30;;
68938;SDS011;59064;45.294;11.816;2023-06-04T02:02:45;12.70;;;9.00;;
68938;SDS011;59064;45.294;11.816;2023-06-04T02:05:13;13.10;;;9.00;;
68938;SDS011;59064;45.294;11.816;2023-06-04T02:07:41;15.80;;;10.00;;
68938;SDS011;59064;45.294;11.816;2023-06-04T02:10:15;13.50;;;9.50;;
68938;SDS011;59064;45.294;11.816;2023-06-04T02:13:02;13.80;;;9.10;;
68938;SDS011;59064;45.294;11.816;2023-06-04T02:15:29;14.30;;;10.10;;
68938;SDS011;59064;45.294;11.816;2023-06-04T02:17:58;14.30;;;10.60;;
68938;SDS011;59064;45.294;11.816;2023-06-04T02:20:26;14.00;;;9.30;;
68938;SDS011;59064;45.294;11.816;2023-06-04T02:22:54;10.70;;;8.20;;
68938;SDS011;59064;45.294;11.816;2023-06-04T02:25:21;11.80;;;8.40;;
68938;SDS011;59064;45.294;11.816;2023-06-04T02:27:48;10.60;;;8.60;;
68938;SDS011;59064;45.294;11.816;2023-06-04T02:30:13;13.60;;;10.00;;
68938;SDS011;59064;45.294;11.816;2023-06-04T02:32:42;13.10;;;9.90;;
68938;SDS011;59064;45.294;11.816;2023-06-04T02:35:09;12.70;;;9.60;;
68938;SDS011;59064;45.294;11.816;2023-06-04T02:37:35;13.50;;;8.90;;
68938;SDS011;59064;45.294;11.816;2023-06-04T02:40:01;12.40;;;9.40;;
68938;SDS011;59064;45.294;11.816;2023-06-04T02:42:27;11.20;;;8.80;;
68938;SDS011;59064;45.294;11.816;2023-06-04T02:44:53;12.60;;;10.10;;
68938;SDS011;59064;45.294;11.816;2023-06-04T02:47:20;13.60;;;9.80;;
68938;SDS011;59064;45.294;11.816;2023-06-04T02:49:46;15.30;;;11.20;;
68938;SDS011;59064;45.294;11.816;2023-06-04T02:52:11;17.20;;;11.10;;
68938;SDS011;59064;45.294;11.816;2023-06-04T02:54:37;13.90;;;10.70;;
68938;SDS011;59064;45.294;11.816;2023-06-04T02:57:03;13.10;;;10.30;;
68938;SDS011;59064;45.294;11.816;2023-06-04T02:59:29;11.70;;;8.70;;
68938;SDS011;59064;45.294;11.816;2023-06-04T03:01:55;13.00;;;10.20;;
68938;SDS011;59064;45.294;11.816;2023-06-04T03:04:21;13.80;;;9.90;;
68938;SDS011;59064;45.294;11.816;2023-06-04T03:06:46;13.30;;;9.50;;
68938;SDS011;59064;45.294;11.816;2023-06-04T03:09:12;15.40;;;11.00;;
68938;SDS011;59064;45.294;11.816;2023-06-04T03:11:39;16.30;;;10.30;;
68938;SDS011;59064;45.294;11.816;2023-06-04T03:14:05;14.40;;;10.70;;
68938;SDS011;59064;45.294;11.816;2023-06-04T03:16:30;15.70;;;11.40;;
68938;SDS011;59064;45.294;11.816;2023-06-04T03:18:56;16.40;;;12.10;;
68938;SDS011;59064;45.294;11.816;2023-06-04T03:21:22;16.40;;;12.30;;
68938;SDS011;59064;45.294;11.816;2023-06-04T03:23:50;14.80;;;12.10;;
68938;SDS011;59064;45.294;11.816;2023-06-04T03:26:16;19.40;;;12.60;;
68938;SDS011;59064;45.294;11.816;2023-06-04T03:28:41;14.90;;;11.90;;
68938;SDS011;59064;45.294;11.816;2023-06-04T03:31:07;19.10;;;13.70;;
68938;SDS011;59064;45.294;11.816;2023-06-04T03:33:32;19.30;;;13.20;;
68938;SDS011;59064;45.294;11.816;2023-06-04T03:35:58;17.20;;;13.50;;
68938;SDS011;59064;45.294;11.816;2023-06-04T03:38:25;16.40;;;11.70;;
68938;SDS011;59064;45.294;11.816;2023-06-04T03:40:51;17.40;;;13.00;;
68938;SDS011;59064;45.294;11.816;2023-06-04T03:43:19;18.50;;;13.30;;
68938;SDS011;59064;45.294;11.816;2023-06-04T03:45:45;20.70;;;13.40;;
68938;SDS011;59064;45.294;11.816;2023-06-04T03:48:11;15.00;;;11.10;;
68938;SDS011;59064;45.294;11.816;2023-06-04T03:50:37;15.90;;;12.60;;
68938;SDS011;59064;45.294;11.816;2023-06-04T03:53:03;15.80;;;11.00;;
68938;SDS011;59064;45.294;11.816;2023-06-04T03:55:31;17.50;;;12.70;;
68938;SDS011;59064;45.294;11.816;2023-06-04T03:58:00;14.30;;;10.40;;
68938;SDS011;59064;45.294;11.816;2023-06-04T04:00:26;15.00;;;11.80;;
68938;SDS011;59064;45.294;11.816;2023-06-04T04:02:52;15.80;;;10.80;;
68938;SDS011;59064;45.294;11.816;2023-06-04T04:05:17;14.50;;;10.20;;
68938;SDS011;59064;45.294;11.816;2023-06-04T04:07:43;12.20;;;9.00;;
68938;SDS011;59064;45.294;11.816;2023-06-04T04:10:09;16.00;;;9.80;;
68938;SDS011;59064;45.294;11.816;2023-06-04T04:12:35;15.10;;;10.00;;
68938;SDS011;59064;45.294;11.816;2023-06-04T04:15:01;10.90;;;8.90;;
68938;SDS011;59064;45.294;11.816;2023-06-04T04:17:26;12.10;;;9.20;;
68938;SDS011;59064;45.294;11.816;2023-06-04T04:19:52;12.60;;;8.20;;
68938;SDS011;59064;45.294;11.816;2023-06-04T04:22:18;10.60;;;7.90;;
68938;SDS011;59064;45.294;11.816;2023-06-04T04:24:44;11.10;;;8.20;;
68938;SDS011;59064;45.294;11.816;2023-06-04T04:27:10;10.80;;;7.00;;
68938;SDS011;59064;45.294;11.816;2023-06-04T04:29:41;11.00;;;7.30;;
68938;SDS011;59064;45.294;11.816;2023-06-04T04:32:08;10.10;;;6.80;;
68938;SDS011;59064;45.294;11.816;2023-06-04T04:34:38;11.40;;;7.00;;
68938;SDS011;59064;45.294;11.816;2023-06-04T04:37:16;12.50;;;6.90;;
68938;SDS011;59064;45.294;11.816;2023-06-04T04:39:42;9.20;;;6.30;;
68938;SDS011;59064;45.294;11.816;2023-06-04T04:42:08;9.80;;;6.90;;
68938;SDS011;59064;45.294;11.816;2023-06-04T04:44:33;10.80;;;6.80;;
68938;SDS011;59064;45.294;11.816;2023-06-04T04:46:59;9.90;;;7.10;;
68938;SDS011;59064;45.294;11.816;2023-06-04T04:49:24;9.60;;;6.40;;
68938;SDS011;59064;45.294;11.816;2023-06-04T04:51:50;8.20;;;5.70;;
68938;SDS011;59064;45.294;11.816;2023-06-04T04:54:16;8.50;;;6.00;;
68938;SDS011;59064;45.294;11.816;2023-06-04T04:56:42;6.50;;;4.40;;
68938;SDS011;59064;45.294;11.816;2023-06-04T04:59:07;10.60;;;5.10;;
68938;SDS011;59064;45.294;11.816;2023-06-04T05:01:33;7.80;;;5.60;;
68938;SDS011;59064;45.294;11.816;2023-06-04T05:03:59;9.10;;;5.90;;
68938;SDS011;59064;45.294;11.816;2023-06-04T05:06:24;9.10;;;5.10;;
68938;SDS011;59064;45.294;11.816;2023-06-04T05:08:53;7.40;;;5.60;;
68938;SDS011;59064;45.294;11.816;2023-06-04T05:11:19;9.20;;;5.90;;
68938;SDS011;59064;45.294;11.816;2023-06-04T05:13:45;9.70;;;5.60;;
68938;SDS011;59064;45.294;11.816;2023-06-04T05:16:11;9.10;;;5.40;;
68938;SDS011;59064;45.294;11.816;2023-06-04T05:18:38;7.30;;;5.90;;
68938;SDS011;59064;45.294;11.816;2023-06-04T05:21:07;7.90;;;6.10;;
68938;SDS011;59064;45.294;11.816;2023-06-04T05:23:33;8.30;;;5.60;;
68938;SDS011;59064;45.294;11.816;2023-06-04T05:26:03;8.10;;;5.40;;
68938;SDS011;59064;45.294;11.816;2023-06-04T05:28:29;8.60;;;4.50;;
68938;SDS011;59064;45.294;11.816;2023-06-04T05:30:55;9.90;;;5.50;;
68938;SDS011;59064;45.294;11.816;2023-06-04T05:33:24;9.30;;;5.40;;
68938;SDS011;59064;45.294;11.816;2023-06-04T05:35:50;8.70;;;5.70;;
68938;SDS011;59064;45.294;11.816;2023-06-04T05:38:20;8.40;;;5.40;;
68938;SDS011;59064;45.294;11.816;2023-06-04T05:40:54;8.30;;;5.30;;
68938;SDS011;59064;45.294;11.816;2023-06-04T05:43:21;7.50;;;5.70;;
68938;SDS011;59064;45.294;11.816;2023-06-04T05:45:47;8.80;;;5.50;;
68938;SDS011;59064;45.294;11.816;2023-06-04T05:48:13;8.10;;;5.30;;
68938;SDS011;59064;45.294;11.816;2023-06-04T05:50:39;8.20;;;5.80;;
68938;SDS011;59064;45.294;11.816;2023-06-04T05:53:04;8.50;;;6.00;;
68938;SDS011;59064;45.294;11.816;2023-06-04T05:55:30;8.00;;;5.50;;
68938;SDS011;59064;45.294;11.816;2023-06-04T05:57:56;10.60;;;5.40;;
68938;SDS011;59064;45.294;11.816;2023-06-04T06:00:22;8.70;;;6.00;;
68938;SDS011;59064;45.294;11.816;2023-06-04T06:02:51;9.30;;;5.50;;
68938;SDS011;59064;45.294;11.816;2023-06-04T06:05:18;10.50;;;5.70;;
68938;SDS011;59064;45.294;11.816;2023-06-04T06:07:45;8.00;;;6.30;;
68938;SDS011;59064;45.294;11.816;2023-06-04T06:10:11;10.50;;;5.70;;
68938;SDS011;59064;45.294;11.816;2023-06-04T06:12:38;8.70;;;5.60;;
68938;SDS011;59064;45.294;11.816;2023-06-04T06:15:04;8.10;;;5.70;;
68938;SDS011;59064;45.294;11.816;2023-06-04T06:17:31;9.70;;;5.90;;
68938;SDS011;59064;45.294;11.816;2023-06-04T06:19:58;8.30;;;5.10;;
68938;SDS011;59064;45.294;11.816;2023-06-04T06:22:24;8.00;;;5.80;;
68938;SDS011;59064;45.294;11.816;2023-06-04T06:24:50;9.50;;;6.10;;
68938;SDS011;59064;45.294;11.816;2023-06-04T06:27:16;8.20;;;5.50;;
68938;SDS011;59064;45.294;11.816;2023-06-04T06:29:43;8.60;;;6.40;;
68938;SDS011;59064;45.294;11.816;2023-06-04T06:32:12;7.90;;;5.40;;
68938;SDS011;59064;45.294;11.816;2023-06-04T06:34:38;8.50;;;5.90;;
68938;SDS011;59064;45.294;11.816;2023-06-04T06:37:04;7.70;;;5.70;;
68938;SDS011;59064;45.294;11.816;2023-06-04T06:39:29;8.10;;;6.00;;
68938;SDS011;59064;45.294;11.816;2023-06-04T06:41:55;8.70;;;6.20;;
68938;SDS011;59064;45.294;11.816;2023-06-04T06:44:21;8.50;;;6.00;;
68938;SDS011;59064;45.294;11.816;2023-06-04T06:46:47;10.20;;;6.20;;
68938;SDS011;59064;45.294;11.816;2023-06-04T06:49:14;8.70;;;6.50;;
68938;SDS011;59064;45.294;11.816;2023-06-04T06:51:40;8.20;;;5.90;;
68938;SDS011;59064;45.294;11.816;2023-06-04T06:54:08;10.70;;;6.10;;
68938;SDS011;59064;45.294;11.816;2023-06-04T06:56:35;10.10;;;5.70;;
68938;SDS011;59064;45.294;11.816;2023-06-04T06:59:00;8.90;;;6.30;;
68938;SDS011;59064;45.294;11.816;2023-06-04T07:01:26;8.80;;;6.10;;
68938;SDS011;59064;45.294;11.816;2023-06-04T07:03:52;9.50;;;7.00;;
68938;SDS011;59064;45.294;11.816;2023-06-04T07:06:18;9.60;;;7.30;;
68938;SDS011;59064;45.294;11.816;2023-06-04T07:08:43;10.50;;;7.70;;
68938;SDS011;59064;45.294;11.816;2023-06-04T07:11:09;10.10;;;6.90;;
68938;SDS011;59064;45.294;11.816;2023-06-04T07:13:40;10.60;;;6.90;;
68938;SDS011;59064;45.294;11.816;2023-06-04T07:16:06;9.20;;;6.80;;
68938;SDS011;59064;45.294;11.816;2023-06-04T07:18:32;8.10;;;6.50;;
68938;SDS011;59064;45.294;11.816;2023-06-04T07:20:58;8.10;;;6.00;;
68938;SDS011;59064;45.294;11.816;2023-06-04T07:23:24;10.60;;;7.40;;
68938;SDS011;59064;45.294;11.816;2023-06-04T07:25:50;9.80;;;7.10;;
68938;SDS011;59064;45.294;11.816;2023-06-04T07:28:16;10.60;;;8.20;;
68938;SDS011;59064;45.294;11.816;2023-06-04T07:30:41;8.50;;;6.20;;
68938;SDS011;59064;45.294;11.816;2023-06-04T07:33:08;8.90;;;6.40;;
68938;SDS011;59064;45.294;11.816;2023-06-04T07:35:33;9.20;;;5.90;;
68938;SDS011;59064;45.294;11.816;2023-06-04T07:37:59;8.50;;;5.80;;
68938;SDS011;59064;45.294;11.816;2023-06-04T07:40:25;9.80;;;6.00;;
68938;SDS011;59064;45.294;11.816;2023-06-04T07:42:50;8.10;;;5.90;;
68938;SDS011;59064;45.294;11.816;2023-06-04T07:45:16;8.50;;;5.90;;
68938;SDS011;59064;45.294;11.816;2023-06-04T07:47:42;9.20;;;6.20;;
68938;SDS011;59064;45.294;11.816;2023-06-04T07:50:08;10.10;;;6.50;;
68938;SDS011;59064;45.294;11.816;2023-06-04T07:52:34;10.00;;;7.30;;
68938;SDS011;59064;45.294;11.816;2023-06-04T07:55:00;10.20;;;6.30;;
68938;SDS011;59064;45.294;11.816;2023-06-04T07:57:26;11.60;;;5.80;;
68938;SDS011;59064;45.294;11.816;2023-06-04T07:59:52;10.70;;;6.20;;
68938;SDS011;59064;45.294;11.816;2023-06-04T08:02:18;8.60;;;6.10;;
68938;SDS011;59064;45.294;11.816;2023-06-04T08:04:44;7.70;;;4.70;;
68938;SDS011;59064;45.294;11.816;2023-06-04T08:07:11;9.10;;;6.10;;
68938;SDS011;59064;45.294;11.816;2023-06-04T08:09:38;8.30;;;6.20;;
68938;SDS011;59064;45.294;11.816;2023-06-04T08:12:03;10.30;;;5.10;;
68938;SDS011;59064;45.294;11.816;2023-06-04T08:14:29;8.00;;;6.00;;
68938;SDS011;59064;45.294;11.816;2023-06-04T08:16:57;8.10;;;6.20;;
68938;SDS011;59064;45.294;11.816;2023-06-04T08:19:23;9.70;;;6.20;;
68938;SDS011;59064;45.294;11.816;2023-06-04T08:21:49;10.00;;;6.80;;
68938;SDS011;59064;45.294;11.816;2023-06-04T08:24:15;8.40;;;5.50;;
68938;SDS011;59064;45.294;11.816;2023-06-04T08:26:41;7.80;;;5.30;;
68938;SDS011;59064;45.294;11.816;2023-06-04T08:29:07;7.70;;;6.70;;
68938;SDS011;59064;45.294;11.816;2023-06-04T08:31:33;7.70;;;5.70;;
68938;SDS011;59064;45.294;11.816;2023-06-04T08:33:59;10.60;;;6.10;;
68938;SDS011;59064;45.294;11.816;2023-06-04T08:36:26;9.40;;;6.50;;
68938;SDS011;59064;45.294;11.816;2023-06-04T08:38:52;9.80;;;6.60;;
68938;SDS011;59064;45.294;11.816;2023-06-04T08:43:57;9.80;;;7.60;;
68938;SDS011;59064;45.294;11.816;2023-06-04T08:46:23;10.10;;;5.90;;
68938;SDS011;59064;45.294;11.816;2023-06-04T08:48:50;8.40;;;6.20;;
68938;SDS011;59064;45.294;11.816;2023-06-04T08:51:15;8.80;;;6.40;;
68938;SDS011;59064;45.294;11.816;2023-06-04T08:53:42;11.10;;;6.50;;
68938;SDS011;59064;45.294;11.816;2023-06-04T08:56:09;11.70;;;7.60;;
68938;SDS011;59064;45.294;11.816;2023-06-04T08:58:36;9.60;;;6.70;;
68938;SDS011;59064;45.294;11.816;2023-06-04T09:01:04;13.70;;;7.20;;
68938;SDS011;59064;45.294;11.816;2023-06-04T09:03:30;9.90;;;6.70;;
68938;SDS011;59064;45.294;11.816;2023-06-04T09:06:01;9.70;;;6.30;;
68938;SDS011;59064;45.294;11.816;2023-06-04T09:08:31;9.50;;;6.80;;
68938;SDS011;59064;45.294;11.816;2023-06-04T09:10:59;10.90;;;7.00;;
68938;SDS011;59064;45.294;11.816;2023-06-04T09:13:30;10.10;;;7.30;;
68938;SDS011;59064;45.294;11.816;2023-06-04T09:16:01;7.90;;;5.80;;
68938;SDS011;59064;45.294;11.816;2023-06-04T09:18:28;8.40;;;6.00;;
68938;SDS011;59064;45.294;11.816;2023-06-04T09:21:04;8.50;;;6.40;;
68938;SDS011;59064;45.294;11.816;2023-06-04T09:23:36;10.10;;;7.30;;
68938;SDS011;59064;45.294;11.816;2023-06-04T09:26:09;10.00;;;7.20;;
68938;SDS011;59064;45.294;11.816;2023-06-04T09:28:43;10.70;;;7.00;;
68938;SDS011;59064;45.294;11.816;2023-06-04T09:31:14;9.30;;;6.80;;
68938;SDS011;59064;45.294;11.816;2023-06-04T09:33:49;10.80;;;7.40;;
68938;SDS011;59064;45.294;11.816;2023-06-04T09:36:15;11.40;;;7.80;;
68938;SDS011;59064;45.294;11.816;2023-06-04T09:38:41;11.40;;;7.50;;
68938;SDS011;59064;45.294;11.816;2023-06-04T09:41:11;9.90;;;7.80;;
68938;SDS011;59064;45.294;11.816;2023-06-04T09:43:38;9.40;;;7.60;;
68938;SDS011;59064;45.294;11.816;2023-06-04T09:46:11;9.80;;;7.50;;
68938;SDS011;59064;45.294;11.816;2023-06-04T09:48:39;11.40;;;9.20;;
68938;SDS011;59064;45.294;11.816;2023-06-04T09:53:38;11.10;;;8.20;;
68938;SDS011;59064;45.294;11.816;2023-06-04T09:56:05;9.70;;;6.90;;
68938;SDS011;59064;45.294;11.816;2023-06-04T09:58:32;8.90;;;7.30;;
68938;SDS011;59064;45.294;11.816;2023-06-04T10:01:00;11.20;;;7.40;;
68938;SDS011;59064;45.294;11.816;2023-06-04T10:03:34;10.30;;;8.00;;
68938;SDS011;59064;45.294;11.816;2023-06-04T10:06:05;11.20;;;7.30;;
68938;SDS011;59064;45.294;11.816;2023-06-04T10:08:32;9.90;;;7.20;;
68938;SDS011;59064;45.294;11.816;2023-06-04T10:11:01;10.80;;;7.30;;
68938;SDS011;59064;45.294;11.816;2023-06-04T10:13:30;8.70;;;6.30;;
68938;SDS011;59064;45.294;11.816;2023-06-04T10:16:00;11.10;;;8.70;;
68938;SDS011;59064;45.294;11.816;2023-06-04T10:18:27;10.00;;;7.80;;
68938;SDS011;59064;45.294;11.816;2023-06-04T10:20:57;10.40;;;7.80;;
68938;SDS011;59064;45.294;11.816;2023-06-04T10:23:23;9.70;;;6.80;;
68938;SDS011;59064;45.294;11.816;2023-06-04T10:25:50;9.30;;;8.00;;
68938;SDS011;59064;45.294;11.816;2023-06-04T10:28:20;9.10;;;6.20;;
68938;SDS011;59064;45.294;11.816;2023-06-04T10:30:47;9.50;;;6.70;;
68938;SDS011;59064;45.294;11.816;2023-06-04T10:33:19;11.30;;;7.20;;
68938;SDS011;59064;45.294;11.816;2023-06-04T10:35:53;9.80;;;7.50;;
68938;SDS011;59064;45.294;11.816;2023-06-04T10:38:21;11.00;;;9.50;;
68938;SDS011;59064;45.294;11.816;2023-06-04T10:40:47;12.90;;;9.40;;
68938;SDS011;59064;45.294;11.816;2023-06-04T10:43:14;9.10;;;6.80;;
68938;SDS011;59064;45.294;11.816;2023-06-04T10:45:44;11.10;;;8.00;;
68938;SDS011;59064;45.294;11.816;2023-06-04T10:48:12;9.70;;;7.60;;
68938;SDS011;59064;45.294;11.816;2023-06-04T10:50:52;8.60;;;6.60;;
68938;SDS011;59064;45.294;11.816;2023-06-04T10:53:19;9.80;;;6.60;;
68938;SDS011;59064;45.294;11.816;2023-06-04T10:55:46;8.70;;;6.40;;
68938;SDS011;59064;45.294;11.816;2023-06-04T10:58:13;8.60;;;6.30;;
68938;SDS011;59064;45.294;11.816;2023-06-04T11:00:41;7.60;;;6.40;;
68938;SDS011;59064;45.294;11.816;2023-06-04T11:03:12;7.80;;;6.40;;
68938;SDS011;59064;45.294;11.816;2023-06-04T11:05:42;8.50;;;7.10;;
68938;SDS011;59064;45.294;11.816;2023-06-04T11:08:10;8.00;;;6.10;;
68938;SDS011;59064;45.294;11.816;2023-06-04T11:10:40;8.80;;;6.70;;
68938;SDS011;59064;45.294;11.816;2023-06-04T11:13:07;10.50;;;8.00;;
68938;SDS011;59064;45.294;11.816;2023-06-04T11:15:51;9.30;;;6.90;;
68938;SDS011;59064;45.294;11.816;2023-06-04T11:18:21;9.40;;;6.80;;
68938;SDS011;59064;45.294;11.816;2023-06-04T11:20:50;9.20;;;6.00;;
68938;SDS011;59064;45.294;11.816;2023-06-04T11:23:24;9.60;;;6.80;;
68938;SDS011;59064;45.294;11.816;2023-06-04T11:25:52;8.60;;;5.90;;
68938;SDS011;59064;45.294;11.816;2023-06-04T11:28:19;13.10;;;8.30;;
68938;SDS011;59064;45.294;11.816;2023-06-04T11:31:05;13.20;;;7.90;;
68938;SDS011;59064;45.294;11.816;2023-06-04T11:33:47;11.10;;;8.30;;
68938;SDS011;59064;45.294;11.816;2023-06-04T11:36:27;11.90;;;9.40;;
68938;SDS011;59064;45.294;11.816;2023-06-04T11:38:59;11.10;;;7.10;;
68938;SDS011;59064;45.294;11.816;2023-06-04T11:41:28;11.20;;;8.10;;
68938;SDS011;59064;45.294;11.816;2023-06-04T11:43:56;12.20;;;8.20;;
68938;SDS011;59064;45.294;11.816;2023-06-04T11:46:23;12.40;;;8.70;;
68938;SDS011;59064;45.294;11.816;2023-06-04T11:48:52;11.10;;;8.10;;
68938;SDS011;59064;45.294;11.816;2023-06-04T11:51:22;12.50;;;8.10;;
68938;SDS011;59064;45.294;11.816;2023-06-04T11:53:47;11.70;;;8.60;;
68938;SDS011;59064;45.294;11.816;2023-06-04T11:56:14;12.20;;;7.90;;
68938;SDS011;59064;45.294;11.816;2023-06-04T11:58:40;10.70;;;7.40;;
68938;SDS011;59064;45.294;11.816;2023-06-04T12:01:07;12.10;;;8.00;;
68938;SDS011;59064;45.294;11.816;2023-06-04T12:03:38;11.40;;;8.90;;
68938;SDS011;59064;45.294;11.816;2023-06-04T12:06:18;10.40;;;7.60;;
68938;SDS011;59064;45.294;11.816;2023-06-04T12:08:52;9.90;;;6.90;;
68938;SDS011;59064;45.294;11.816;2023-06-04T12:13:57;10.70;;;7.80;;
68938;SDS011;59064;45.294;11.816;2023-06-04T12:16:25;11.70;;;7.60;;
68938;SDS011;59064;45.294;11.816;2023-06-04T12:18:51;7.80;;;7.00;;
68938;SDS011;59064;45.294;11.816;2023-06-04T12:21:24;10.60;;;6.60;;
68938;SDS011;59064;45.294;11.816;2023-06-04T12:24:04;7.50;;;4.90;;
68938;SDS011;59064;45.294;11.816;2023-06-04T12:26:35;9.10;;;6.20;;
68938;SDS011;59064;45.294;11.816;2023-06-04T12:29:15;8.50;;;6.50;;
68938;SDS011;59064;45.294;11.816;2023-06-04T12:31:44;10.60;;;7.10;;
68938;SDS011;59064;45.294;11.816;2023-06-04T12:34:13;9.00;;;6.20;;
68938;SDS011;59064;45.294;11.816;2023-06-04T12:36:40;10.10;;;6.40;;
68938;SDS011;59064;45.294;11.816;2023-06-04T12:39:06;10.20;;;6.70;;
68938;SDS011;59064;45.294;11.816;2023-06-04T12:41:32;6.40;;;5.00;;
68938;SDS011;59064;45.294;11.816;2023-06-04T12:43:59;8.50;;;5.00;;
68938;SDS011;59064;45.294;11.816;2023-06-04T12:46:26;6.80;;;4.80;;
68938;SDS011;59064;45.294;11.816;2023-06-04T12:48:53;7.70;;;5.30;;
68938;SDS011;59064;45.294;11.816;2023-06-04T12:51:20;8.50;;;5.80;;
68938;SDS011;59064;45.294;11.816;2023-06-04T12:53:47;8.30;;;6.50;;
68938;SDS011;59064;45.294;11.816;2023-06-04T12:56:13;8.00;;;5.80;;
68938;SDS011;59064;45.294;11.816;2023-06-04T12:58:39;6.90;;;4.40;;
68938;SDS011;59064;45.294;11.816;2023-06-04T13:01:05;9.00;;;5.10;;
68938;SDS011;59064;45.294;11.816;2023-06-04T13:03:31;11.60;;;6.80;;
68938;SDS011;59064;45.294;11.816;2023-06-04T13:06:02;9.70;;;6.10;;
68938;SDS011;59064;45.294;11.816;2023-06-04T13:08:27;9.60;;;7.00;;
68938;SDS011;59064;45.294;11.816;2023-06-04T13:10:53;10.10;;;6.90;;
68938;SDS011;59064;45.294;11.816;2023-06-04T13:13:19;7.80;;;5.10;;
68938;SDS011;59064;45.294;11.816;2023-06-04T13:15:45;9.80;;;6.30;;
68938;SDS011;59064;45.294;11.816;2023-06-04T13:18:11;9.70;;;5.30;;
68938;SDS011;59064;45.294;11.816;2023-06-04T13:20:39;8.90;;;6.20;;
68938;SDS011;59064;45.294;11.816;2023-06-04T13:23:06;8.40;;;6.00;;
68938;SDS011;59064;45.294;11.816;2023-06-04T13:25:32;8.80;;;6.20;;
68938;SDS011;59064;45.294;11.816;2023-06-04T13:28:02;9.60;;;6.20;;
68938;SDS011;59064;45.294;11.816;2023-06-04T13:30:29;9.10;;;6.70;;
68938;SDS011;59064;45.294;11.816;2023-06-04T13:32:54;8.40;;;5.70;;
68938;SDS011;59064;45.294;11.816;2023-06-04T13:35:21;8.20;;;6.40;;
68938;SDS011;59064;45.294;11.816;2023-06-04T13:37:46;9.20;;;6.30;;
68938;SDS011;59064;45.294;11.816;2023-06-04T13:40:13;7.90;;;5.30;;
68938;SDS011;59064;45.294;11.816;2023-06-04T13:42:39;9.80;;;6.00;;
68938;SDS011;59064;45.294;11.816;2023-06-04T13:45:05;9.20;;;5.60;;
68938;SDS011;59064;45.294;11.816;2023-06-04T13:47:31;9.40;;;5.70;;
68938;SDS011;59064;45.294;11.816;2023-06-04T13:49:58;8.70;;;5.50;;
68938;SDS011;59064;45.294;11.816;2023-06-04T13:52:23;7.60;;;5.40;;
68938;SDS011;59064;45.294;11.816;2023-06-04T13:54:49;8.70;;;6.30;;
68938;SDS011;59064;45.294;11.816;2023-06-04T13:57:16;8.30;;;6.10;;
68938;SDS011;59064;45.294;11.816;2023-06-04T13:59:42;8.80;;;6.80;;
68938;SDS011;59064;45.294;11.816;2023-06-04T14:02:08;12.00;;;6.60;;
68938;SDS011;59064;45.294;11.816;2023-06-04T14:04:33;8.90;;;6.70;;
68938;SDS011;59064;45.294;11.816;2023-06-04T14:06:59;10.40;;;6.30;;
68938;SDS011;59064;45.294;11.816;2023-06-04T14:09:25;10.30;;;6.20;;
68938;SDS011;59064;45.294;11.816;2023-06-04T14:11:51;10.50;;;6.90;;
68938;SDS011;59064;45.294;11.816;2023-06-04T14:14:17;13.00;;;7.00;;
68938;SDS011;59064;45.294;11.816;2023-06-04T14:16:44;10.40;;;5.90;;
68938;SDS011;59064;45.294;11.816;2023-06-04T14:19:10;11.70;;;6.70;;
68938;SDS011;59064;45.294;11.816;2023-06-04T14:21:36;10.50;;;6.90;;
68938;SDS011;59064;45.294;11.816;2023-06-04T14:24:02;9.20;;;7.00;;
68938;SDS011;59064;45.294;11.816;2023-06-04T14:26:28;12.30;;;7.80;;
68938;SDS011;59064;45.294;11.816;2023-06-04T14:28:55;8.80;;;6.80;;
68938;SDS011;59064;45.294;11.816;2023-06-04T14:31:21;10.50;;;7.20;;
68938;SDS011;59064;45.294;11.816;2023-06-04T14:33:47;10.10;;;5.90;;
68938;SDS011;59064;45.294;11.816;2023-06-04T14:36:13;9.70;;;6.70;;
68938;SDS011;59064;45.294;11.816;2023-06-04T14:38:39;10.00;;;6.90;;
68938;SDS011;59064;45.294;11.816;2023-06-04T14:41:04;11.90;;;7.40;;